Schedule Details


Flight Number: CTN414
Departure: Franjo Tudman (LDZA) at 17:55
Arrival: Frankfurt/main (EDDF) at 19:30
Route: OBUTI UM19 GRZ DCT SUBEN T161 PSA

Weather Information
LDZA 170100Z 08004KT 020V160 CAVOK M02/M04 Q1019 NOSIG
EDDF 170050Z 15002KT 0900 R25R/1900N R25C/P2000N R25L/P2000N R18/1400D -DZ FG SCT001 BKN003 00/00 Q1016 R25R/29//95 R25C/29//95 R25L/29//95 R18/29//95 NOSIG
Schedule Frequency

Route Map